KEWK/EWK METAR and TAF weather

Enter ICAO airport designator
Station Type Date Time Source
KEWK METAR 2018/12/11 19:56 UTC NOAA

KEWK 111956Z AUTO 20018G25KT 10SM CLR 11/02 A2987 RMK AO2 PK WND 20028/1931 SLP119 T01110017


Station Type Date Time Source
KEWK Decoded METAR 2018/12/11 19:56 UTC NOAA

Newton, Newton City/County Airport, KS, United States (KEWK) 38-03N 097-17W
Dec 11, 2018 - 02:56 PM EST / 2018.12.11 1956 UTC
Wind: from the SSW (200 degrees) at 21 MPH (18 KT) gusting to 29 MPH (25 KT):0
Visibility: 10 mile(s):0
Sky conditions: clear
Temperature: 52.0 F (11.1 C)
Dew Point: 35.1 F (1.7 C)
Relative Humidity: 52%
Pressure (altimeter): 29.87 in. Hg (1011 hPa)
ob: KEWK 111956Z AUTO 20018G25KT 10SM CLR 11/02 A2987 RMK AO2 PK WND 20028/1931 SLP119 T01110017
cycle: 20

Station Type Date Time Source
KEWK TAF UTC NOAA

Error!


Example: see airport list